Time;durP1;ratioP1;P1;durP2;ratioP2;P2;SDS_P1;SDS_P2;PMS_P1;PMS_P2;Temp;Humidity;BMP_temperature;BMP_pressure;BME280_temperature;BME280_humidity;BME280_pressure;Samples;Min_cycle;Max_cycle;Signal;HPM_P1;HPM_P2
2022/03/21 00:01:11;;;;;;;16.02;6.68;;;10.80;99.90;;;;;;5096819;28;20017;-82
2022/03/21 00:03:37;;;;;;;51.90;28.15;;;10.80;99.90;;;;;;5096929;28;20024;-79
2022/03/21 00:06:03;;;;;;;83.38;46.83;;;10.80;99.90;;;;;;5098047;28;20092;-81
2022/03/21 00:08:29;;;;;;;13.70;7.95;;;10.80;99.90;;;;;;5096789;28;20028;-80
2022/03/21 00:10:56;;;;;;;41.58;21.38;;;10.70;99.90;;;;;;5096767;28;20495;-80
2022/03/21 00:13:24;;;;;;;27.92;12.68;;;10.80;99.90;;;;;;5096638;28;20016;-82
2022/03/21 00:15:52;;;;;;;17.73;8.70;;;10.80;99.90;;;;;;5082283;28;20024;-81
2022/03/21 00:18:18;;;;;;;18.95;7.88;;;10.80;99.90;;;;;;5096687;28;20028;-79
2022/03/21 00:20:49;;;;;;;24.85;11.05;;;10.80;99.90;;;;;;5097753;28;20090;-80
2022/03/21 00:23:16;;;;;;;14.23;5.72;;;10.80;99.90;;;;;;5098340;28;20028;-80
2022/03/21 00:25:42;;;;;;;13.35;7.22;;;10.80;99.90;;;;;;5097825;28;20028;-81
2022/03/21 00:28:09;;;;;;;28.20;14.32;;;10.80;99.90;;;;;;5096613;28;20032;-81
2022/03/21 00:30:36;;;;;;;16.25;7.13;;;10.80;99.90;;;;;;5096740;28;20032;-81
2022/03/21 00:33:02;;;;;;;19.23;8.45;;;10.80;99.90;;;;;;5097097;28;20396;-80
2022/03/21 00:35:29;;;;;;;19.35;8.75;;;10.70;99.90;;;;;;5096610;28;20016;-81
2022/03/21 00:37:56;;;;;;;10.90;5.30;;;10.70;99.90;;;;;;5096850;28;20035;-82
2022/03/21 00:40:22;;;;;;;18.13;8.18;;;10.70;99.90;;;;;;5097666;28;20040;-81
2022/03/21 00:42:49;;;;;;;32.40;17.10;;;10.70;99.90;;;;;;5096667;28;20031;-81
2022/03/21 00:45:20;;;;;;;13.05;8.05;;;10.70;99.90;;;;;;5097521;28;20024;-83
2022/03/21 00:47:49;;;;;;;25.10;10.60;;;10.70;99.90;;;;;;5096289;28;20032;-80
2022/03/21 00:50:17;;;;;;;81.57;43.33;;;10.70;99.90;;;;;;5096421;28;20020;-81
2022/03/21 00:52:55;;;;;;;30.65;14.63;;;10.80;99.90;;;;;;5097345;28;20094;-81
2022/03/21 00:55:26;;;;;;;85.35;39.97;;;10.70;99.90;;;;;;5089379;28;20059;-81
2022/03/21 00:57:52;;;;;;;50.55;23.15;;;10.80;99.90;;;;;;5112520;28;20024;-81
2022/03/21 01:00:25;;;;;;;192.05;79.72;;;10.70;99.90;;;;;;5097469;28;20056;-81
2022/03/21 01:02:51;;;;;;;102.38;43.13;;;10.70;99.90;;;;;;5096269;28;20032;-81
2022/03/21 01:05:17;;;;;;;44.83;14.93;;;10.70;99.90;;;;;;5097344;28;20068;-80
2022/03/21 01:07:44;;;;;;;16.83;6.65;;;10.70;99.90;;;;;;5097410;28;20024;-82
2022/03/21 01:10:15;;;;;;;23.05;8.82;;;10.70;99.90;;;;;;5097394;28;20016;-81
2022/03/21 01:12:42;;;;;;;29.13;11.20;;;10.70;99.90;;;;;;5097076;28;20020;-80
2022/03/21 01:15:09;;;;;;;141.20;46.20;;;10.70;99.90;;;;;;5095893;28;20047;-82
2022/03/21 01:17:35;;;;;;;218.07;67.20;;;10.70;99.90;;;;;;5096092;28;20034;-82
2022/03/21 01:20:03;;;;;;;28.90;10.25;;;10.70;99.90;;;;;;5097422;28;20023;-80
2022/03/21 01:22:29;;;;;;;18.08;8.23;;;10.60;99.90;;;;;;5096048;28;20544;-81
2022/03/21 01:24:55;;;;;;;86.35;29.65;;;10.70;99.90;;;;;;5097275;28;20448;-80
2022/03/21 01:27:21;;;;;;;102.22;31.42;;;10.70;99.90;;;;;;5096725;28;20054;-81
2022/03/21 01:29:47;;;;;;;58.17;18.90;;;10.70;99.90;;;;;;5095990;28;20024;-82
2022/03/21 01:32:13;;;;;;;189.55;60.55;;;10.70;99.90;;;;;;5096255;28;20016;-82
2022/03/21 01:34:39;;;;;;;29.08;13.55;;;10.70;99.90;;;;;;5097042;28;20389;-82
2022/03/21 01:37:05;;;;;;;55.42;19.70;;;10.60;99.90;;;;;;5095742;28;20101;-81
2022/03/21 01:39:31;;;;;;;22.85;8.40;;;10.60;99.90;;;;;;5096411;28;20027;-80
2022/03/21 01:41:57;;;;;;;269.60;72.35;;;10.70;99.90;;;;;;5098109;28;20035;-81
2022/03/21 01:44:23;;;;;;;35.95;12.07;;;10.60;99.90;;;;;;5098517;28;20081;-82
2022/03/21 01:46:49;;;;;;;305.95;70.00;;;10.60;99.90;;;;;;5097221;28;20024;-82
2022/03/21 01:49:15;;;;;;;229.48;51.60;;;10.60;99.90;;;;;;5098347;28;20063;-81
2022/03/21 01:51:42;;;;;;;59.03;17.27;;;10.60;99.90;;;;;;5098992;28;20095;-82
2022/03/21 01:57:08;;;;;;;102.57;41.72;;;10.50;99.90;;;;;;5078935;28;20030;-81
2022/03/21 01:59:34;;;;;;;16.10;7.28;;;10.50;99.90;;;;;;5098066;28;20020;-81
2022/03/21 02:02:00;;;;;;;21.20;10.05;;;10.50;99.90;;;;;;5100047;28;20392;-81
2022/03/21 02:04:25;;;;;;;58.10;23.15;;;10.50;99.90;;;;;;5100936;28;20369;-82
2022/03/21 02:06:51;;;;;;;26.88;11.30;;;10.60;99.90;;;;;;5099812;28;20024;-82
2022/03/21 02:09:17;;;;;;;26.63;9.43;;;10.50;99.90;;;;;;5099672;28;20035;-83
2022/03/21 02:11:43;;;;;;;16.33;6.00;;;10.60;99.90;;;;;;5099067;28;20090;-81
2022/03/21 02:14:10;;;;;;;31.60;17.38;;;10.60;99.90;;;;;;5098532;28;20381;-81
2022/03/21 02:16:38;;;;;;;21.10;10.23;;;10.60;99.90;;;;;;5100743;28;20436;-82
2022/03/21 02:19:13;;;;;;;26.27;15.18;;;10.60;99.90;;;;;;5098859;28;20111;-83
2022/03/21 02:22:02;;;;;;;14.95;6.80;;;10.60;99.90;;;;;;5100248;28;20028;-81
2022/03/21 02:24:33;;;;;;;314.70;136.40;;;10.50;99.90;;;;;;5100325;28;20024;-81
2022/03/21 02:27:01;;;;;;;101.82;44.25;;;10.50;99.90;;;;;;5099774;28;20031;-81
2022/03/21 02:29:29;;;;;;;70.05;29.67;;;10.50;99.90;;;;;;5100322;28;20035;-83
2022/03/21 02:31:56;;;;;;;135.27;52.72;;;10.50;99.90;;;;;;5098526;28;20052;-82
2022/03/21 02:34:26;;;;;;;134.48;56.33;;;10.50;99.90;;;;;;5100201;28;20016;-82
2022/03/21 02:37:02;;;;;;;44.72;18.65;;;10.50;99.90;;;;;;5098712;28;20028;-85
2022/03/21 02:39:29;;;;;;;64.50;26.65;;;10.50;99.90;;;;;;5100174;28;20048;-82
2022/03/21 02:41:55;;;;;;;31.08;12.90;;;10.50;99.90;;;;;;5099321;28;20064;-82
2022/03/21 02:44:21;;;;;;;27.73;11.38;;;10.40;99.90;;;;;;5099766;28;20023;-81
2022/03/21 02:46:47;;;;;;;77.80;32.95;;;10.40;99.90;;;;;;5099567;28;20020;-80
2022/03/21 02:49:15;;;;;;;32.42;13.60;;;10.50;99.90;;;;;;5098327;28;20024;-81
2022/03/21 02:51:43;;;;;;;167.00;74.30;;;10.40;99.90;;;;;;5098485;28;20028;-81
2022/03/21 02:54:09;;;;;;;51.33;23.30;;;10.30;99.90;;;;;;5099642;28;20065;-81
2022/03/21 02:56:35;;;;;;;30.38;13.73;;;10.40;99.90;;;;;;5097997;28;20024;-81
2022/03/21 02:59:01;;;;;;;32.67;12.68;;;10.40;99.90;;;;;;5098410;28;20031;-82
2022/03/21 03:01:27;;;;;;;16.65;7.10;;;10.30;99.90;;;;;;5098140;28;20035;-81
2022/03/21 03:03:53;;;;;;;15.93;8.20;;;10.40;99.90;;;;;;5098182;28;20491;-81
2022/03/21 03:06:19;;;;;;;64.50;26.55;;;10.40;99.90;;;;;;5098299;28;20028;-82
2022/03/21 03:08:45;;;;;;;28.88;14.32;;;10.40;99.90;;;;;;5094409;28;20026;-81
2022/03/21 03:11:11;;;;;;;40.17;18.50;;;10.40;99.90;;;;;;5098414;28;20028;-82
2022/03/21 03:13:38;;;;;;;32.47;13.40;;;10.40;99.90;;;;;;5098114;28;20519;-81
2022/03/21 03:16:04;;;;;;;16.42;6.45;;;10.30;99.90;;;;;;5099937;28;20027;-81
2022/03/21 03:18:30;;;;;;;14.50;5.68;;;10.30;99.90;;;;;;5100262;28;20068;-82
2022/03/21 03:20:57;;;;;;;9.85;4.97;;;10.30;99.90;;;;;;5099647;28;20063;-82
2022/03/21 03:23:26;;;;;;;11.77;4.30;;;10.30;99.90;;;;;;5099420;28;20020;-82
2022/03/21 03:25:59;;;;;;;12.90;5.22;;;10.30;99.90;;;;;;5098190;28;20507;-82
2022/03/21 03:28:25;;;;;;;10.73;5.18;;;10.20;99.90;;;;;;5098747;28;20028;-81
2022/03/21 03:30:52;;;;;;;14.73;5.38;;;10.30;99.90;;;;;;5098000;28;20028;-81
2022/03/21 03:33:19;;;;;;;15.32;6.13;;;10.20;99.90;;;;;;5098489;28;20133;-82
2022/03/21 03:35:45;;;;;;;12.57;6.03;;;10.20;99.90;;;;;;5097040;28;20086;-82
2022/03/21 03:38:11;;;;;;;10.13;5.45;;;10.10;99.90;;;;;;5098216;28;20020;-82
2022/03/21 03:40:37;;;;;;;16.65;5.57;;;10.10;99.90;;;;;;5095430;28;20131;-82
2022/03/21 03:43:03;;;;;;;12.25;5.75;;;10.10;99.90;;;;;;5097846;28;20055;-82
2022/03/21 03:45:29;;;;;;;12.52;6.25;;;10.10;99.90;;;;;;5092954;28;20027;-81
2022/03/21 03:47:55;;;;;;;12.45;5.25;;;10.00;99.90;;;;;;5096767;28;20078;-82
2022/03/21 03:50:21;;;;;;;12.35;5.50;;;10.00;99.90;;;;;;5096938;28;20019;-83
2022/03/21 03:52:48;;;;;;;12.50;5.43;;;10.00;99.90;;;;;;5096566;28;20499;-83
2022/03/21 03:55:17;;;;;;;16.15;5.65;;;10.00;99.90;;;;;;5093728;28;20027;-83
2022/03/21 03:57:44;;;;;;;18.48;6.45;;;10.10;99.90;;;;;;5096156;28;20453;-82
2022/03/21 04:00:12;;;;;;;15.98;6.20;;;10.10;99.90;;;;;;5096843;28;20082;-82
2022/03/21 04:05:22;;;;;;;15.75;5.55;;;10.10;99.90;;;;;;5078250;28;20554;-83
2022/03/21 04:07:49;;;;;;;11.35;5.15;;;10.10;99.90;;;;;;5079402;28;20028;-82
2022/03/21 04:10:16;;;;;;;16.08;5.35;;;10.10;99.90;;;;;;5080185;28;20107;-82
2022/03/21 04:12:43;;;;;;;17.05;5.72;;;10.10;99.90;;;;;;5080880;28;20012;-82
2022/03/21 04:15:10;;;;;;;11.73;5.78;;;10.20;99.90;;;;;;5084956;28;20058;-82
2022/03/21 04:17:36;;;;;;;17.58;6.32;;;10.20;99.90;;;;;;5096251;28;20016;-81
2022/03/21 04:20:06;;;;;;;11.25;5.07;;;10.20;99.90;;;;;;5097586;28;20377;-82
2022/03/21 04:22:37;;;;;;;11.63;5.77;;;10.20;99.90;;;;;;5097160;28;20020;-81
2022/03/21 04:25:10;;;;;;;16.70;5.63;;;10.20;99.90;;;;;;5096161;28;20154;-82
2022/03/21 04:27:37;;;;;;;12.48;5.03;;;10.30;99.90;;;;;;5092642;28;20020;-82
2022/03/21 04:30:04;;;;;;;12.02;6.18;;;10.30;99.90;;;;;;5080940;28;20036;-81
2022/03/21 04:32:31;;;;;;;16.45;5.75;;;10.20;99.90;;;;;;5080746;28;20411;-81
2022/03/21 04:34:56;;;;;;;11.25;5.45;;;10.20;99.90;;;;;;5083616;28;20515;-82
2022/03/21 04:37:22;;;;;;;12.68;4.93;;;10.20;99.90;;;;;;5080967;28;20823;-82
2022/03/21 04:39:48;;;;;;;16.67;5.70;;;10.30;99.90;;;;;;5085585;28;20095;-81
2022/03/21 04:42:15;;;;;;;10.55;5.35;;;10.40;99.90;;;;;;5078540;28;20029;-81
2022/03/21 04:44:41;;;;;;;12.30;5.25;;;10.40;99.90;;;;;;5078953;28;20841;-82
2022/03/21 04:47:07;;;;;;;10.88;5.28;;;10.40;99.90;;;;;;5080187;28;20078;-82
2022/03/21 04:49:33;;;;;;;18.92;5.93;;;10.30;99.90;;;;;;5077718;28;20096;-82
2022/03/21 04:51:59;;;;;;;12.57;4.47;;;10.30;99.90;;;;;;5084746;28;20091;-81
2022/03/21 04:54:28;;;;;;;10.45;5.30;;;10.30;99.90;;;;;;5096246;28;20028;-81
2022/03/21 04:56:54;;;;;;;11.55;5.32;;;10.30;99.90;;;;;;5095829;28;20181;-82
2022/03/21 04:59:20;;;;;;;17.98;6.47;;;10.30;99.90;;;;;;5091700;28;20037;-81
2022/03/21 05:01:47;;;;;;;12.10;5.78;;;10.30;99.90;;;;;;5096083;28;20032;-81
2022/03/21 05:04:13;;;;;;;9.70;5.35;;;10.30;99.90;;;;;;5097339;28;20026;-81
2022/03/21 05:06:39;;;;;;;11.57;5.13;;;10.30;99.90;;;;;;5097396;28;20025;-81
2022/03/21 05:09:06;;;;;;;18.08;6.03;;;10.30;99.90;;;;;;5096149;28;20476;-83
2022/03/21 05:11:32;;;;;;;15.32;6.18;;;10.30;99.90;;;;;;5095473;28;20028;-82
2022/03/21 05:13:58;;;;;;;11.55;5.43;;;10.30;99.90;;;;;;5097152;28;20020;-81
2022/03/21 05:16:24;;;;;;;13.00;5.40;;;10.40;99.90;;;;;;5097334;28;20016;-84
2022/03/21 05:18:50;;;;;;;14.93;5.25;;;10.40;99.90;;;;;;5096051;28;20392;-81
2022/03/21 05:21:17;;;;;;;10.65;5.13;;;10.40;99.90;;;;;;5097153;28;20028;-82
2022/03/21 05:31:56;;;;;;;14.30;6.20;;;10.30;99.90;;;;;;5101075;28;20027;-81
2022/03/21 05:37:07;;;;;;;13.43;6.18;;;10.30;99.90;;;;;;5087354;28;20040;-81
2022/03/21 05:39:33;;;;;;;15.82;5.75;;;10.20;99.90;;;;;;5093499;28;20028;-82
2022/03/21 05:41:59;;;;;;;17.35;5.32;;;10.20;99.90;;;;;;5099457;28;20028;-82
2022/03/21 05:44:25;;;;;;;13.65;6.20;;;10.20;99.90;;;;;;5101064;28;20507;-81
2022/03/21 05:46:51;;;;;;;11.57;4.88;;;10.30;99.90;;;;;;5101552;28;20545;-85
2022/03/21 05:49:17;;;;;;;13.77;5.53;;;10.30;99.90;;;;;;5099772;28;20471;-81
2022/03/21 05:51:43;;;;;;;11.00;5.97;;;10.40;99.90;;;;;;5099449;28;20028;-82
2022/03/21 05:54:13;;;;;;;12.82;5.32;;;10.40;99.90;;;;;;5099888;28;20483;-81
2022/03/21 05:56:41;;;;;;;9.40;5.03;;;10.40;99.90;;;;;;5100394;28;20024;-81
2022/03/21 06:01:52;;;;;;;16.42;6.28;;;10.30;99.90;;;;;;5101417;28;20054;-80
2022/03/21 06:04:19;;;;;;;7.28;5.35;;;10.30;99.90;;;;;;5101802;28;20020;-81
2022/03/21 06:06:46;;;;;;;9.27;4.97;;;10.30;99.90;;;;;;5101797;28;20043;-81
2022/03/21 06:09:12;;;;;;;8.25;5.47;;;10.20;99.90;;;;;;5101722;28;20024;-80
2022/03/21 06:11:38;;;;;;;8.20;5.07;;;10.30;99.90;;;;;;5103071;28;20028;-83
2022/03/21 06:14:05;;;;;;;8.15;5.32;;;10.30;99.90;;;;;;5104378;28;20026;-81
2022/03/21 06:16:31;;;;;;;7.93;5.10;;;10.40;99.90;;;;;;5103493;28;20028;-83
2022/03/21 06:19:00;;;;;;;11.85;5.15;;;10.40;99.90;;;;;;5095091;28;20016;-83
2022/03/21 06:21:30;;;;;;;11.63;5.03;;;10.40;99.90;;;;;;5102553;28;20035;-82
2022/03/21 06:23:59;;;;;;;24.97;6.73;;;10.40;99.90;;;;;;5104258;28;20028;-82
2022/03/21 06:26:25;;;;;;;12.60;6.30;;;10.50;99.90;;;;;;5103579;28;20030;-83
2022/03/21 06:28:51;;;;;;;9.50;4.68;;;10.50;99.90;;;;;;5103408;28;20020;-83
2022/03/21 06:31:17;;;;;;;9.82;5.50;;;10.50;99.90;;;;;;5101553;28;20021;-81
2022/03/21 06:33:42;;;;;;;9.55;4.45;;;10.60;99.90;;;;;;5101627;28;20050;-81
2022/03/21 06:36:09;;;;;;;10.82;5.05;;;10.60;99.90;;;;;;5099578;28;20016;-81
2022/03/21 06:38:35;;;;;;;8.55;4.80;;;10.70;99.90;;;;;;5098397;28;20484;-83
2022/03/21 06:41:03;;;;;;;15.68;5.15;;;10.70;99.90;;;;;;5098816;28;20040;-81
2022/03/21 06:43:29;;;;;;;10.70;5.95;;;10.70;99.90;;;;;;5099643;28;20043;-82
2022/03/21 06:45:56;;;;;;;10.32;5.20;;;10.80;99.90;;;;;;5100174;28;20107;-83
2022/03/21 06:48:23;;;;;;;11.00;5.25;;;10.80;99.90;;;;;;5098554;28;20028;-82
2022/03/21 06:50:51;;;;;;;9.88;5.47;;;10.80;99.90;;;;;;5100034;28;20020;-82
2022/03/21 06:53:18;;;;;;;9.50;4.85;;;10.90;99.90;;;;;;5099853;28;20023;-83
2022/03/21 06:55:45;;;;;;;9.85;5.50;;;10.90;99.90;;;;;;5099818;28;20048;-80
2022/03/21 06:58:13;;;;;;;7.15;4.50;;;10.90;99.90;;;;;;5097862;28;21218;-82
2022/03/21 07:00:40;;;;;;;8.75;4.45;;;11.00;99.90;;;;;;5098327;28;20069;-82
2022/03/21 07:03:06;;;;;;;9.15;4.43;;;11.00;99.90;;;;;;5098116;28;20396;-83
2022/03/21 07:05:32;;;;;;;12.60;4.47;;;11.00;99.90;;;;;;5099804;28;20016;-81
2022/03/21 07:07:58;;;;;;;10.50;4.10;;;11.00;99.90;;;;;;5097935;28;20111;-82
2022/03/21 07:10:24;;;;;;;8.55;4.80;;;11.00;99.90;;;;;;5099544;28;20058;-82
2022/03/21 07:12:49;;;;;;;7.07;4.53;;;11.10;99.90;;;;;;5097565;28;20051;-80
2022/03/21 07:15:15;;;;;;;6.38;3.70;;;11.20;99.90;;;;;;5097842;28;20073;-81
2022/03/21 07:17:42;;;;;;;10.75;4.95;;;11.20;99.90;;;;;;5097460;28;20025;-82
2022/03/21 07:20:12;;;;;;;6.75;4.75;;;11.30;99.90;;;;;;5098177;28;20400;-81
2022/03/21 07:22:39;;;;;;;7.85;4.35;;;11.40;99.90;;;;;;5098060;28;20030;-82
2022/03/21 07:25:06;;;;;;;6.88;3.47;;;11.50;99.90;;;;;;5098258;28;20043;-82
2022/03/21 07:27:33;;;;;;;7.43;3.42;;;11.60;99.90;;;;;;5098782;28;20028;-82
2022/03/21 07:29:59;;;;;;;4.05;3.03;;;11.60;99.90;;;;;;5085845;28;20115;-82
2022/03/21 07:32:25;;;;;;;6.30;3.38;;;11.60;99.90;;;;;;5100035;28;20060;-83
2022/03/21 07:34:50;;;;;;;6.28;3.80;;;11.70;99.90;;;;;;5100229;28;20023;-83
2022/03/21 07:37:16;;;;;;;7.45;3.40;;;11.80;99.90;;;;;;5093234;28;20042;-82
2022/03/21 07:39:45;;;;;;;5.80;3.10;;;11.80;99.90;;;;;;5091504;28;20511;-81
2022/03/21 07:42:15;;;;;;;9.60;3.78;;;11.90;99.90;;;;;;5098269;28;20080;-81
2022/03/21 07:47:34;;;;;;;3.85;3.30;;;12.00;99.90;;;;;;5083303;28;20044;-81
2022/03/21 07:50:00;;;;;;;6.32;3.10;;;12.10;99.90;;;;;;5094584;28;20031;-80
2022/03/21 07:52:26;;;;;;;4.95;3.10;;;12.20;99.90;;;;;;5098279;28;20020;-80
2022/03/21 07:54:53;;;;;;;7.85;3.63;;;12.20;99.90;;;;;;5098353;28;20480;-80
2022/03/21 07:57:23;;;;;;;6.53;2.85;;;12.20;99.90;;;;;;5097859;28;20069;-81
2022/03/21 07:59:50;;;;;;;10.25;3.58;;;12.30;99.90;;;;;;5087735;28;20017;-81
2022/03/21 08:02:19;;;;;;;8.70;3.38;;;12.40;99.90;;;;;;5098269;28;20036;-79
2022/03/21 08:04:48;;;;;;;5.88;2.95;;;12.40;99.90;;;;;;5098422;28;20024;-81
2022/03/21 08:07:15;;;;;;;5.47;2.88;;;12.50;99.90;;;;;;5084563;28;20024;-81
2022/03/21 08:09:41;;;;;;;4.90;3.20;;;12.60;99.90;;;;;;5083983;28;20074;-79
2022/03/21 08:12:08;;;;;;;6.85;3.22;;;12.60;99.90;;;;;;5078103;28;20020;-80
2022/03/21 08:14:35;;;;;;;5.53;2.75;;;12.60;99.90;;;;;;5078344;28;20020;-79
2022/03/21 08:17:05;;;;;;;13.43;3.65;;;12.70;99.90;;;;;;5081401;28;20032;-80
2022/03/21 08:19:31;;;;;;;7.15;3.95;;;12.80;99.90;;;;;;5079399;28;20017;-80
2022/03/21 08:21:57;;;;;;;9.80;3.05;;;12.90;99.90;;;;;;5090240;28;20032;-80
2022/03/21 08:24:23;;;;;;;6.47;3.42;;;13.00;99.90;;;;;;5097045;28;20077;-79
2022/03/21 08:26:49;;;;;;;6.63;3.83;;;13.00;99.90;;;;;;5087948;28;20024;-81
2022/03/21 08:29:15;;;;;;;6.07;3.00;;;13.00;99.90;;;;;;5090156;28;20039;-79
2022/03/21 08:31:42;;;;;;;6.78;2.60;;;13.10;99.90;;;;;;5096208;28;20122;-80
2022/03/21 08:34:09;;;;;;;6.72;3.15;;;13.10;99.90;;;;;;5098018;28;20020;-81
2022/03/21 08:36:35;;;;;;;5.10;2.72;;;13.20;99.90;;;;;;5097649;28;20035;-80
2022/03/21 08:39:04;;;;;;;5.82;2.65;;;13.20;99.90;;;;;;5096871;28;20100;-80
2022/03/21 08:41:32;;;;;;;5.70;2.95;;;13.30;99.90;;;;;;5098119;28;20134;-81
2022/03/21 08:43:58;;;;;;;3.15;2.67;;;13.30;99.90;;;;;;5098754;28;20073;-80
2022/03/21 08:46:24;;;;;;;6.38;2.60;;;13.30;99.90;;;;;;5097779;28;20487;-81
2022/03/21 08:51:35;;;;;;;7.72;2.60;;;13.40;99.90;;;;;;5091956;28;20035;-81
2022/03/21 08:54:01;;;;;;;4.88;2.72;;;13.40;99.90;;;;;;5097676;28;20103;-81
2022/03/21 08:56:28;;;;;;;8.55;2.90;;;13.50;99.90;;;;;;5098342;28;20024;-81
2022/03/21 08:58:55;;;;;;;6.00;2.85;;;13.60;99.90;;;;;;5097051;28;20030;-83
2022/03/21 09:01:22;;;;;;;5.53;2.53;;;13.60;99.90;;;;;;5096648;28;20116;-82
2022/03/21 09:03:49;;;;;;;3.17;2.08;;;13.60;99.90;;;;;;5097142;28;20020;-83
2022/03/21 09:06:17;;;;;;;3.17;2.33;;;13.60;99.90;;;;;;5098196;28;20055;-82
2022/03/21 09:08:43;;;;;;;4.88;2.45;;;13.60;99.90;;;;;;5097975;28;20031;-82
2022/03/21 09:11:09;;;;;;;2.25;2.05;;;13.70;99.90;;;;;;5097902;28;20032;-80
2022/03/21 09:13:35;;;;;;;5.30;2.60;;;13.80;99.90;;;;;;5097610;28;20027;-81
2022/03/21 09:16:01;;;;;;;6.22;2.35;;;13.80;99.90;;;;;;5097392;28;20031;-81
2022/03/21 09:18:27;;;;;;;5.15;2.15;;;13.90;99.90;;;;;;5097320;28;20046;-80
2022/03/21 09:20:53;;;;;;;5.32;2.35;;;13.90;99.90;;;;;;5095903;28;20028;-81
2022/03/21 09:23:18;;;;;;;12.75;2.45;;;14.00;99.90;;;;;;5097468;28;20020;-83
2022/03/21 09:25:44;;;;;;;4.97;2.10;;;14.10;99.90;;;;;;5094618;28;20036;-82
2022/03/21 09:28:10;;;;;;;7.85;2.20;;;14.10;99.90;;;;;;5088419;28;20038;-81
2022/03/21 09:30:39;;;;;;;2.90;2.30;;;14.10;99.90;;;;;;5088989;28;20035;-80
2022/03/21 09:33:05;;;;;;;2.97;2.28;;;14.10;99.90;;;;;;5103445;28;20048;-81
2022/03/21 09:35:31;;;;;;;7.40;2.60;;;14.20;99.90;;;;;;5096798;28;20031;-82
2022/03/21 09:37:57;;;;;;;6.60;2.58;;;14.30;99.90;;;;;;5095738;28;20017;-81
2022/03/21 09:40:24;;;;;;;2.63;2.00;;;14.30;99.90;;;;;;5096718;28;20055;-83
2022/03/21 09:42:50;;;;;;;4.85;2.70;;;14.30;99.90;;;;;;5085265;28;20028;-81
2022/03/21 09:45:16;;;;;;;9.77;3.17;;;14.40;99.90;;;;;;5093876;28;20438;-82
2022/03/21 09:50:35;;;;;;;6.53;2.92;;;14.30;99.90;;;;;;5096926;28;20043;-82
2022/03/21 09:53:02;;;;;;;7.25;4.22;;;14.20;99.90;;;;;;5095590;28;20543;-79
2022/03/21 09:55:28;;;;;;;6.20;2.85;;;14.30;99.90;;;;;;5097209;28;20426;-81
2022/03/21 09:57:54;;;;;;;4.32;2.88;;;14.30;99.90;;;;;;5095191;28;20051;-81
2022/03/21 10:00:20;;;;;;;8.35;3.25;;;14.40;99.90;;;;;;5094327;28;20020;-81
2022/03/21 10:02:46;;;;;;;6.78;2.53;;;14.50;99.90;;;;;;5095618;28;20028;-80
2022/03/21 10:05:31;;;;;;;10.80;3.10;;;14.50;99.90;;;;;;5097309;28;20099;-82
2022/03/21 10:08:21;;;;;;;12.63;3.90;;;14.50;99.90;;;;;;5096938;28;20055;-81
2022/03/21 10:11:02;;;;;;;7.85;3.30;;;14.50;99.90;;;;;;5097097;28;20032;-80
2022/03/21 10:13:35;;;;;;;8.93;2.78;;;14.50;99.90;;;;;;5095805;28;20028;-82
2022/03/21 10:16:10;;;;;;;4.72;3.50;;;14.50;99.90;;;;;;5099833;28;20020;-79
2022/03/21 10:18:54;;;;;;;9.32;3.28;;;14.50;99.90;;;;;;5094143;28;20024;-79
2022/03/21 10:21:22;;;;;;;6.30;2.58;;;14.60;99.90;;;;;;5098697;28;20115;-80
2022/03/21 10:23:58;;;;;;;6.10;3.10;;;14.60;99.90;;;;;;5100308;28;20066;-82
2022/03/21 10:26:29;;;;;;;8.00;3.17;;;14.70;99.90;;;;;;5099346;28;20115;-78
2022/03/21 10:29:06;;;;;;;5.63;2.95;;;14.60;99.90;;;;;;5098458;28;20431;-79
2022/03/21 10:31:43;;;;;;;6.72;2.33;;;14.60;99.90;;;;;;5098341;28;20032;-80
2022/03/21 10:34:15;;;;;;;9.43;3.30;;;14.60;99.90;;;;;;5099962;28;20095;-79
2022/03/21 10:37:03;;;;;;;14.32;3.83;;;14.60;99.90;;;;;;5099838;28;20020;-78
2022/03/21 10:39:32;;;;;;;8.18;3.30;;;14.50;99.90;;;;;;5098614;28;20020;-79
2022/03/21 10:42:09;;;;;;;5.90;2.47;;;14.60;99.90;;;;;;5097776;28;20047;-80
2022/03/21 10:44:36;;;;;;;5.45;2.85;;;14.60;99.90;;;;;;5098316;28;20030;-78
2022/03/21 10:47:04;;;;;;;16.83;2.63;;;14.60;99.90;;;;;;5098463;28;20050;-81
2022/03/21 10:49:34;;;;;;;4.15;2.72;;;14.60;99.90;;;;;;5098573;28;20031;-82
2022/03/21 10:52:02;;;;;;;6.68;3.10;;;14.70;99.90;;;;;;5098394;28;20048;-81
2022/03/21 10:54:37;;;;;;;11.60;3.75;;;14.60;99.90;;;;;;5098287;28;20508;-81
2022/03/21 10:57:04;;;;;;;8.25;3.63;;;14.60;99.90;;;;;;5099234;28;20020;-80
2022/03/21 10:59:32;;;;;;;7.25;3.35;;;14.50;99.90;;;;;;5099731;28;20034;-80
2022/03/21 11:02:12;;;;;;;8.02;3.38;;;14.50;99.90;;;;;;5099543;28;20031;-82
2022/03/21 11:04:41;;;;;;;6.47;3.92;;;14.50;99.90;;;;;;5098185;28;20059;-81
2022/03/21 11:07:11;;;;;;;7.18;4.05;;;14.60;99.90;;;;;;5099435;28;20028;-79
2022/03/21 11:09:39;;;;;;;16.33;4.50;;;14.60;99.90;;;;;;5099184;28;20032;-81
2022/03/21 11:12:07;;;;;;;9.57;3.60;;;14.60;99.90;;;;;;5097612;28;20278;-83
2022/03/21 11:14:37;;;;;;;12.75;4.47;;;14.50;99.90;;;;;;5099038;28;20023;-83
2022/03/21 11:17:05;;;;;;;8.68;4.25;;;14.40;99.90;;;;;;5087245;28;20091;-81
2022/03/21 11:19:31;;;;;;;9.43;4.30;;;14.50;99.90;;;;;;5099174;28;20028;-79
2022/03/21 11:22:00;;;;;;;16.17;4.75;;;14.60;99.90;;;;;;5097658;28;20423;-81
2022/03/21 11:24:30;;;;;;;12.63;4.55;;;14.60;99.90;;;;;;5090350;28;20079;-81
2022/03/21 11:27:33;;;;;;;9.63;4.53;;;14.60;99.90;;;;;;5092579;28;20039;-82
2022/03/21 11:30:28;;;;;;;10.20;4.53;;;14.80;99.90;;;;;;5092112;28;20028;-81
2022/03/21 11:33:00;;;;;;;21.52;4.70;;;14.90;99.90;;;;;;5073062;28;20488;-84
2022/03/21 11:35:29;;;;;;;8.00;4.72;;;14.90;99.90;;;;;;5099537;28;20028;-83
2022/03/21 11:38:27;;;;;;;8.03;3.77;;;14.90;99.90;;;;;;5098244;28;20063;-80
2022/03/21 11:41:13;;;;;;;8.63;3.70;;;14.70;99.90;;;;;;5096350;28;20055;-82
2022/03/21 11:43:40;;;;;;;6.20;3.58;;;14.80;99.90;;;;;;5097479;28;20020;-82
2022/03/21 11:46:21;;;;;;;7.55;3.90;;;14.90;99.90;;;;;;5098803;28;20438;-83
2022/03/21 11:48:48;;;;;;;13.43;4.40;;;14.90;99.90;;;;;;5098583;28;20031;-82
2022/03/21 11:51:16;;;;;;;10.73;4.10;;;15.00;99.90;;;;;;5097022;28;20496;-82
2022/03/21 11:53:50;;;;;;;14.32;5.07;;;15.00;99.90;;;;;;5097192;28;20016;-83
2022/03/21 11:56:44;;;;;;;8.65;4.18;;;15.00;99.90;;;;;;5097984;28;20035;-80
2022/03/21 11:59:32;;;;;;;10.65;4.57;;;15.00;99.90;;;;;;5098316;28;20453;-80
2022/03/21 12:02:01;;;;;;;16.20;5.15;;;15.10;99.90;;;;;;5097017;28;20115;-82
2022/03/21 12:04:29;;;;;;;14.98;4.63;;;15.10;99.90;;;;;;5096827;28;20028;-80
2022/03/21 12:06:59;;;;;;;14.90;5.88;;;15.00;99.90;;;;;;5096774;28;20131;-82
2022/03/21 12:09:41;;;;;;;11.35;3.33;;;15.00;99.90;;;;;;5098142;28;20024;-84
2022/03/21 12:12:10;;;;;;;9.35;4.60;;;14.90;99.90;;;;;;5084467;28;20036;-84
2022/03/21 12:14:40;;;;;;;11.27;4.13;;;15.00;99.90;;;;;;5078248;28;20021;-81
2022/03/21 12:17:12;;;;;;;;;;;14.90;99.90;;;;;;5079232;28;20021;-82
2022/03/21 12:20:05;;;;;;;10.65;4.65;;;14.90;99.90;;;;;;5077069;28;19933;-82
2022/03/21 12:22:33;;;;;;;10.38;4.80;;;14.90;99.90;;;;;;5080119;28;20032;-82
2022/03/21 12:25:15;;;;;;;8.35;3.67;;;14.80;99.90;;;;;;5078916;28;20047;-81
2022/03/21 12:27:51;;;;;;;10.63;4.10;;;14.90;99.90;;;;;;5079154;28;20012;-82
2022/03/21 12:30:40;;;;;;;13.25;4.55;;;14.90;99.90;;;;;;5077663;28;20017;-81
2022/03/21 12:33:14;;;;;;;13.90;4.65;;;14.90;99.90;;;;;;5077623;28;20123;-81
2022/03/21 12:35:42;;;;;;;11.30;4.40;;;15.00;99.90;;;;;;5082935;28;20020;-81
2022/03/21 12:38:12;;;;;;;13.32;5.63;;;14.90;99.90;;;;;;5076882;28;20056;-82
2022/03/21 12:40:46;;;;;;;10.30;5.15;;;14.90;99.90;;;;;;5080299;28;20047;-81
2022/03/21 12:43:14;;;;;;;11.10;5.13;;;15.00;99.90;;;;;;5093615;28;20035;-80
2022/03/21 12:45:43;;;;;;;9.63;4.75;;;15.00;99.90;;;;;;5096227;28;20016;-82
2022/03/21 12:48:11;;;;;;;6.10;3.72;;;15.10;99.90;;;;;;5078889;28;20082;-82
2022/03/21 12:50:38;;;;;;;15.55;4.93;;;15.10;99.90;;;;;;5087005;28;20054;-82
2022/03/21 12:53:08;;;;;;;11.50;4.50;;;15.10;99.90;;;;;;5096837;28;20066;-81
2022/03/21 12:55:34;;;;;;;12.52;5.05;;;14.90;99.90;;;;;;5097273;28;20023;-83
2022/03/21 12:58:08;;;;;;;5.43;3.95;;;15.00;99.90;;;;;;5096665;28;20024;-82
2022/03/21 13:00:39;;;;;;;10.65;3.92;;;15.00;99.90;;;;;;5090608;28;20024;-82
2022/03/21 13:03:11;;;;;;;15.15;5.25;;;14.80;99.90;;;;;;5077036;28;20028;-83
2022/03/21 13:11:26;;;;;;;8.02;4.05;;;14.80;99.90;;;;;;5096810;28;20057;-80
2022/03/21 13:13:58;;;;;;;11.75;4.70;;;14.80;99.90;;;;;;5083715;28;20032;-82
2022/03/21 13:16:28;;;;;;;15.27;4.60;;;14.80;99.90;;;;;;5096709;28;20040;-80
2022/03/21 13:18:56;;;;;;;9.25;4.20;;;14.80;99.90;;;;;;5096145;28;20031;-83